Strona główna
METAR-TAF:

METAR-TAF

Lotnisko :

Bellefontaine, Ohio, Stany Zjednoczone

Szerokość geograficzna: 40-22-20N, Długość geograficzna: 083-49-08W, wysokość: 342 m

Aktualna obserwacja pogody

Raport powstał 36 minut temu, godzina 02:15 UTC
Wiatr 8 kt od zachodnio-południowy zachód
Temperatura -2°C
Wilgotność 100%
Ciśnienie 1017 hPa
Widzialność: 16.1 km
Przerywane chmury na wysokości 5000 ft

METAR: KEDJ 190215Z AUTO 24008KT 10SM BKN050 M02/M02 A3003 RMK AO1

czas: 21:51 (02:51 UTC)


TAF: brakujący

Obserwacja i prognoza pogody dla ponad 4000 lotnisk (raport METAR i TAF).

Dostępne stacje oznaczono żółtymi i czerwonymi punktami na mapie.

Najedź kursorem aby zobaczyć nazwę stacji.

Kliknij aby zobaczyć obserwacje i prognozy pogody.

Aby zmienić mapę: kliknij na zielony przycisk z czarnym krzyżykiem, aby powiększyć; na zielony przycisk z myślnikiem, aby pomniejszyć; na zielone strzałki, aby przejść do map sąsiednich.


METAR-TAF: